sensor_id;sensor_type;location;lat;lon;timestamp;temperature;humidity
56322;DHT22;42227;6.376;-10.782;2022-08-04T00:00:14;24.80;99.90
56322;DHT22;42227;6.376;-10.782;2022-08-04T00:08:46;25.60;99.90
56322;DHT22;42227;6.376;-10.782;2022-08-04T00:11:30;25.40;99.90
56322;DHT22;42227;6.376;-10.782;2022-08-04T00:14:04;25.10;99.90
56322;DHT22;42227;6.376;-10.782;2022-08-04T00:16:35;24.80;99.90
56322;DHT22;42227;6.376;-10.782;2022-08-04T00:19:36;24.70;99.90
56322;DHT22;42227;6.376;-10.782;2022-08-04T00:22:09;24.50;99.90
56322;DHT22;42227;6.376;-10.782;2022-08-04T00:24:37;24.40;99.90
56322;DHT22;42227;6.376;-10.782;2022-08-04T00:27:07;24.40;99.90
56322;DHT22;42227;6.376;-10.782;2022-08-04T00:29:37;24.30;99.90
56322;DHT22;42227;6.376;-10.782;2022-08-04T00:32:07;24.30;99.90
56322;DHT22;42227;6.376;-10.782;2022-08-04T00:34:36;24.40;99.90
56322;DHT22;42227;6.376;-10.782;2022-08-04T00:37:05;24.40;99.90
56322;DHT22;42227;6.376;-10.782;2022-08-04T00:39:33;24.40;99.90
56322;DHT22;42227;6.376;-10.782;2022-08-04T00:42:22;24.40;99.90
56322;DHT22;42227;6.376;-10.782;2022-08-04T00:45:30;24.50;99.90
56322;DHT22;42227;6.376;-10.782;2022-08-04T00:51:46;24.60;99.90
56322;DHT22;42227;6.376;-10.782;2022-08-04T01:00:25;24.20;99.90
56322;DHT22;42227;6.376;-10.782;2022-08-04T01:11:35;24.00;99.90
56322;DHT22;42227;6.376;-10.782;2022-08-04T01:16:57;24.00;99.90
56322;DHT22;42227;6.376;-10.782;2022-08-04T01:20:04;24.00;99.90
56322;DHT22;42227;6.376;-10.782;2022-08-04T01:34:05;24.10;99.90
56322;DHT22;42227;6.376;-10.782;2022-08-04T01:36:35;24.30;99.90
56322;DHT22;42227;6.376;-10.782;2022-08-04T01:39:04;24.40;99.90
56322;DHT22;42227;6.376;-10.782;2022-08-04T01:41:33;24.20;99.90
56322;DHT22;42227;6.376;-10.782;2022-08-04T01:44:02;24.10;99.90
56322;DHT22;42227;6.376;-10.782;2022-08-04T01:46:33;24.00;99.90
56322;DHT22;42227;6.376;-10.782;2022-08-04T01:49:02;23.90;99.90
56322;DHT22;42227;6.376;-10.782;2022-08-04T01:51:32;23.90;99.90
56322;DHT22;42227;6.376;-10.782;2022-08-04T01:54:07;23.90;99.90
56322;DHT22;42227;6.376;-10.782;2022-08-04T01:56:36;23.80;99.90
56322;DHT22;42227;6.376;-10.782;2022-08-04T01:59:05;23.80;99.90
56322;DHT22;42227;6.376;-10.782;2022-08-04T02:01:36;23.70;99.90
56322;DHT22;42227;6.376;-10.782;2022-08-04T02:04:05;23.70;99.90
56322;DHT22;42227;6.376;-10.782;2022-08-04T02:07:05;23.70;99.90
56322;DHT22;42227;6.376;-10.782;2022-08-04T02:09:40;23.70;99.90
56322;DHT22;42227;6.376;-10.782;2022-08-04T02:12:26;23.70;99.90
56322;DHT22;42227;6.376;-10.782;2022-08-04T02:18:03;24.00;99.90
56322;DHT22;42227;6.376;-10.782;2022-08-04T02:20:36;24.30;99.90
56322;DHT22;42227;6.376;-10.782;2022-08-04T02:23:06;24.50;99.90
56322;DHT22;42227;6.376;-10.782;2022-08-04T02:25:56;24.60;99.90
56322;DHT22;42227;6.376;-10.782;2022-08-04T02:31:18;24.20;99.90
56322;DHT22;42227;6.376;-10.782;2022-08-04T02:34:07;24.10;99.90
56322;DHT22;42227;6.376;-10.782;2022-08-04T02:36:39;24.10;99.90
56322;DHT22;42227;6.376;-10.782;2022-08-04T02:39:10;24.10;99.90
56322;DHT22;42227;6.376;-10.782;2022-08-04T02:41:39;24.10;99.90
56322;DHT22;42227;6.376;-10.782;2022-08-04T02:44:09;24.10;99.90
56322;DHT22;42227;6.376;-10.782;2022-08-04T02:46:38;24.10;99.90
56322;DHT22;42227;6.376;-10.782;2022-08-04T02:49:08;24.10;99.90
56322;DHT22;42227;6.376;-10.782;2022-08-04T02:51:41;24.10;99.90
56322;DHT22;42227;6.376;-10.782;2022-08-04T02:54:10;24.10;99.90
56322;DHT22;42227;6.376;-10.782;2022-08-04T02:56:39;24.10;99.90
56322;DHT22;42227;6.376;-10.782;2022-08-04T02:59:09;24.10;99.90
56322;DHT22;42227;6.376;-10.782;2022-08-04T03:01:39;24.30;99.90
56322;DHT22;42227;6.376;-10.782;2022-08-04T03:21:21;24.20;99.90
56322;DHT22;42227;6.376;-10.782;2022-08-04T03:33:19;24.10;99.90
56322;DHT22;42227;6.376;-10.782;2022-08-04T03:35:55;24.10;99.90
56322;DHT22;42227;6.376;-10.782;2022-08-04T04:07:21;24.10;99.90
56322;DHT22;42227;6.376;-10.782;2022-08-04T04:32:29;24.50;99.90
56322;DHT22;42227;6.376;-10.782;2022-08-04T04:35:31;24.70;99.90
56322;DHT22;42227;6.376;-10.782;2022-08-04T04:44:29;24.50;99.90
56322;DHT22;42227;6.376;-10.782;2022-08-04T04:52:27;24.20;99.90
56322;DHT22;42227;6.376;-10.782;2022-08-04T04:57:52;24.20;99.90
56322;DHT22;42227;6.376;-10.782;2022-08-04T05:01:15;24.20;99.90
56322;DHT22;42227;6.376;-10.782;2022-08-04T05:06:48;24.10;99.90
56322;DHT22;42227;6.376;-10.782;2022-08-04T05:09:44;24.10;99.90
56322;DHT22;42227;6.376;-10.782;2022-08-04T05:12:34;24.10;99.90
56322;DHT22;42227;6.376;-10.782;2022-08-04T05:15:29;24.30;99.90
56322;DHT22;42227;6.376;-10.782;2022-08-04T05:18:01;24.60;99.90
56322;DHT22;42227;6.376;-10.782;2022-08-04T05:20:41;24.90;99.90
56322;DHT22;42227;6.376;-10.782;2022-08-04T05:23:20;24.70;99.90
56322;DHT22;42227;6.376;-10.782;2022-08-04T05:25:58;24.50;99.90
56322;DHT22;42227;6.376;-10.782;2022-08-04T05:28:33;24.30;99.90
56322;DHT22;42227;6.376;-10.782;2022-08-04T05:31:33;24.20;99.90
56322;DHT22;42227;6.376;-10.782;2022-08-04T05:34:14;24.10;99.90
56322;DHT22;42227;6.376;-10.782;2022-08-04T05:36:50;24.00;99.90
56322;DHT22;42227;6.376;-10.782;2022-08-04T05:39:26;23.90;99.90
56322;DHT22;42227;6.376;-10.782;2022-08-04T05:42:01;23.80;99.90
56322;DHT22;42227;6.376;-10.782;2022-08-04T05:44:34;23.80;99.90
56322;DHT22;42227;6.376;-10.782;2022-08-04T05:47:03;23.70;99.90
56322;DHT22;42227;6.376;-10.782;2022-08-04T05:49:33;23.70;99.90
56322;DHT22;42227;6.376;-10.782;2022-08-04T05:52:03;23.60;99.90
56322;DHT22;42227;6.376;-10.782;2022-08-04T05:54:33;23.60;99.90
56322;DHT22;42227;6.376;-10.782;2022-08-04T05:57:04;23.60;99.90
56322;DHT22;42227;6.376;-10.782;2022-08-04T05:59:36;23.80;99.90
56322;DHT22;42227;6.376;-10.782;2022-08-04T06:02:23;24.00;99.90
56322;DHT22;42227;6.376;-10.782;2022-08-04T06:04:52;24.10;99.90
56322;DHT22;42227;6.376;-10.782;2022-08-04T06:07:20;24.30;99.90
56322;DHT22;42227;6.376;-10.782;2022-08-04T06:09:49;24.00;99.90
56322;DHT22;42227;6.376;-10.782;2022-08-04T06:12:21;23.90;99.90
56322;DHT22;42227;6.376;-10.782;2022-08-04T06:14:53;23.80;99.90
56322;DHT22;42227;6.376;-10.782;2022-08-04T06:17:35;23.80;99.90
56322;DHT22;42227;6.376;-10.782;2022-08-04T06:20:29;23.80;99.90
56322;DHT22;42227;6.376;-10.782;2022-08-04T06:23:06;23.70;99.90
56322;DHT22;42227;6.376;-10.782;2022-08-04T06:25:43;23.70;99.90
56322;DHT22;42227;6.376;-10.782;2022-08-04T06:28:13;23.60;99.90
56322;DHT22;42227;6.376;-10.782;2022-08-04T06:30:43;23.60;99.90
56322;DHT22;42227;6.376;-10.782;2022-08-04T06:33:13;23.60;99.90
56322;DHT22;42227;6.376;-10.782;2022-08-04T06:35:41;23.60;99.90
56322;DHT22;42227;6.376;-10.782;2022-08-04T06:38:10;23.60;99.90
56322;DHT22;42227;6.376;-10.782;2022-08-04T06:40:40;23.60;99.90
56322;DHT22;42227;6.376;-10.782;2022-08-04T06:43:09;23.60;99.90
56322;DHT22;42227;6.376;-10.782;2022-08-04T06:45:39;23.60;99.90
56322;DHT22;42227;6.376;-10.782;2022-08-04T06:48:12;23.70;99.90
56322;DHT22;42227;6.376;-10.782;2022-08-04T06:50:42;24.00;99.90
56322;DHT22;42227;6.376;-10.782;2022-08-04T06:53:32;24.00;99.90
56322;DHT22;42227;6.376;-10.782;2022-08-04T06:56:00;24.20;99.90
56322;DHT22;42227;6.376;-10.782;2022-08-04T06:58:31;24.10;99.90
56322;DHT22;42227;6.376;-10.782;2022-08-04T07:01:01;23.90;99.90
56322;DHT22;42227;6.376;-10.782;2022-08-04T07:03:30;23.80;99.90
56322;DHT22;42227;6.376;-10.782;2022-08-04T07:06:00;23.70;99.90
56322;DHT22;42227;6.376;-10.782;2022-08-04T07:08:34;23.70;99.90
56322;DHT22;42227;6.376;-10.782;2022-08-04T07:11:03;23.70;99.90
56322;DHT22;42227;6.376;-10.782;2022-08-04T07:13:32;23.60;99.90
56322;DHT22;42227;6.376;-10.782;2022-08-04T07:16:00;23.60;99.90
56322;DHT22;42227;6.376;-10.782;2022-08-04T07:18:30;23.60;99.90
56322;DHT22;42227;6.376;-10.782;2022-08-04T07:20:59;23.60;99.90
56322;DHT22;42227;6.376;-10.782;2022-08-04T07:23:28;23.60;99.90
56322;DHT22;42227;6.376;-10.782;2022-08-04T07:25:57;23.60;99.90
56322;DHT22;42227;6.376;-10.782;2022-08-04T07:28:40;24.00;99.90
56322;DHT22;42227;6.376;-10.782;2022-08-04T07:31:15;24.30;99.90
56322;DHT22;42227;6.376;-10.782;2022-08-04T07:34:03;24.40;99.90
56322;DHT22;42227;6.376;-10.782;2022-08-04T07:36:50;24.40;99.90
56322;DHT22;42227;6.376;-10.782;2022-08-04T07:39:24;24.40;99.90
56322;DHT22;42227;6.376;-10.782;2022-08-04T07:42:00;24.10;99.90
56322;DHT22;42227;6.376;-10.782;2022-08-04T07:44:30;24.00;99.90
56322;DHT22;42227;6.376;-10.782;2022-08-04T07:47:01;23.90;99.90
56322;DHT22;42227;6.376;-10.782;2022-08-04T07:49:30;23.90;99.90
56322;DHT22;42227;6.376;-10.782;2022-08-04T07:52:19;23.80;99.90
56322;DHT22;42227;6.376;-10.782;2022-08-04T07:54:48;23.80;99.90
56322;DHT22;42227;6.376;-10.782;2022-08-04T07:57:17;23.70;99.90
56322;DHT22;42227;6.376;-10.782;2022-08-04T08:00:06;23.60;99.90
56322;DHT22;42227;6.376;-10.782;2022-08-04T08:02:42;23.60;99.90
56322;DHT22;42227;6.376;-10.782;2022-08-04T08:05:13;23.60;99.90
56322;DHT22;42227;6.376;-10.782;2022-08-04T08:07:45;23.60;99.90
56322;DHT22;42227;6.376;-10.782;2022-08-04T08:10:21;23.60;99.90
56322;DHT22;42227;6.376;-10.782;2022-08-04T08:12:51;23.60;99.90
56322;DHT22;42227;6.376;-10.782;2022-08-04T08:15:20;23.60;99.90
56322;DHT22;42227;6.376;-10.782;2022-08-04T08:17:49;23.80;99.90
56322;DHT22;42227;6.376;-10.782;2022-08-04T08:20:30;24.10;99.90
56322;DHT22;42227;6.376;-10.782;2022-08-04T08:23:01;24.30;99.90
56322;DHT22;42227;6.376;-10.782;2022-08-04T08:25:31;24.50;99.90
56322;DHT22;42227;6.376;-10.782;2022-08-04T08:28:02;24.50;99.90
56322;DHT22;42227;6.376;-10.782;2022-08-04T08:30:32;24.20;99.90
56322;DHT22;42227;6.376;-10.782;2022-08-04T08:33:04;24.10;99.90
56322;DHT22;42227;6.376;-10.782;2022-08-04T08:35:40;24.00;99.90
56322;DHT22;42227;6.376;-10.782;2022-08-04T08:39:09;24.00;99.90
56322;DHT22;42227;6.376;-10.782;2022-08-04T09:11:05;24.10;99.90
56322;DHT22;42227;6.376;-10.782;2022-08-04T09:13:42;24.30;99.90
56322;DHT22;42227;6.376;-10.782;2022-08-04T09:16:20;24.30;99.90
56322;DHT22;42227;6.376;-10.782;2022-08-04T09:19:03;24.50;99.90
56322;DHT22;42227;6.376;-10.782;2022-08-04T09:21:38;24.40;99.90
56322;DHT22;42227;6.376;-10.782;2022-08-04T09:24:15;24.20;99.90
56322;DHT22;42227;6.376;-10.782;2022-08-04T09:27:11;24.10;99.90
56322;DHT22;42227;6.376;-10.782;2022-08-04T09:30:03;24.10;99.90
56322;DHT22;42227;6.376;-10.782;2022-08-04T09:37:59;24.10;99.90
56322;DHT22;42227;6.376;-10.782;2022-08-04T09:52:34;24.10;99.90
56322;DHT22;42227;6.376;-10.782;2022-08-04T09:58:47;24.40;99.90
56322;DHT22;42227;6.376;-10.782;2022-08-04T10:01:20;24.70;99.90
56322;DHT22;42227;6.376;-10.782;2022-08-04T10:03:56;24.50;99.90
56322;DHT22;42227;6.376;-10.782;2022-08-04T10:09:20;24.40;99.90
56322;DHT22;42227;6.376;-10.782;2022-08-04T10:14:51;24.30;99.90
56322;DHT22;42227;6.376;-10.782;2022-08-04T10:37:39;24.40;99.90
56322;DHT22;42227;6.376;-10.782;2022-08-04T10:41:10;24.70;99.90
56322;DHT22;42227;6.376;-10.782;2022-08-04T10:44:10;25.00;99.90
56322;DHT22;42227;6.376;-10.782;2022-08-04T10:46:48;24.90;99.90
56322;DHT22;42227;6.376;-10.782;2022-08-04T10:49:45;24.80;99.90
56322;DHT22;42227;6.376;-10.782;2022-08-04T10:57:24;24.50;99.90
56322;DHT22;42227;6.376;-10.782;2022-08-04T11:05:54;24.30;99.90
56322;DHT22;42227;6.376;-10.782;2022-08-04T11:13:05;24.30;99.90
56322;DHT22;42227;6.376;-10.782;2022-08-04T11:15:55;24.40;99.90
56322;DHT22;42227;6.376;-10.782;2022-08-04T11:18:45;24.40;99.90
56322;DHT22;42227;6.376;-10.782;2022-08-04T11:21:19;24.60;99.90
56322;DHT22;42227;6.376;-10.782;2022-08-04T11:55:37;24.90;99.90
56322;DHT22;42227;6.376;-10.782;2022-08-04T11:58:26;24.90;99.90
56322;DHT22;42227;6.376;-10.782;2022-08-04T12:06:41;25.90;99.90
56322;DHT22;42227;6.376;-10.782;2022-08-04T12:09:55;25.50;99.90
56322;DHT22;42227;6.376;-10.782;2022-08-04T12:15:27;25.60;99.90
56322;DHT22;42227;6.376;-10.782;2022-08-04T12:21:00;25.40;99.90
56322;DHT22;42227;6.376;-10.782;2022-08-04T12:23:35;25.10;99.90
56322;DHT22;42227;6.376;-10.782;2022-08-04T12:26:13;25.10;99.90
56322;DHT22;42227;6.376;-10.782;2022-08-04T12:28:46;25.00;99.90
56322;DHT22;42227;6.376;-10.782;2022-08-04T12:31:48;25.00;99.90
56322;DHT22;42227;6.376;-10.782;2022-08-04T12:37:17;25.20;99.90
56322;DHT22;42227;6.376;-10.782;2022-08-04T12:39:52;25.20;99.90
56322;DHT22;42227;6.376;-10.782;2022-08-04T12:43:23;25.30;99.90
56322;DHT22;42227;6.376;-10.782;2022-08-04T12:45:59;25.30;99.90
56322;DHT22;42227;6.376;-10.782;2022-08-04T12:48:35;25.40;99.90
56322;DHT22;42227;6.376;-10.782;2022-08-04T12:51:06;25.50;99.90
56322;DHT22;42227;6.376;-10.782;2022-08-04T12:53:57;25.60;99.90
56322;DHT22;42227;6.376;-10.782;2022-08-04T12:56:26;25.70;99.90
56322;DHT22;42227;6.376;-10.782;2022-08-04T12:59:06;25.90;99.90
56322;DHT22;42227;6.376;-10.782;2022-08-04T13:01:48;25.90;99.90
56322;DHT22;42227;6.376;-10.782;2022-08-04T13:04:40;26.10;99.90
56322;DHT22;42227;6.376;-10.782;2022-08-04T13:07:20;26.10;99.90
56322;DHT22;42227;6.376;-10.782;2022-08-04T13:09:51;26.00;99.90
56322;DHT22;42227;6.376;-10.782;2022-08-04T13:12:27;25.60;99.90
56322;DHT22;42227;6.376;-10.782;2022-08-04T13:15:20;25.50;99.90
56322;DHT22;42227;6.376;-10.782;2022-08-04T13:20:28;25.20;99.90
56322;DHT22;42227;6.376;-10.782;2022-08-04T13:25:39;25.30;99.90
56322;DHT22;42227;6.376;-10.782;2022-08-04T13:28:31;25.30;99.90
56322;DHT22;42227;6.376;-10.782;2022-08-04T13:31:03;25.30;99.90
56322;DHT22;42227;6.376;-10.782;2022-08-04T13:33:40;25.30;99.90
56322;DHT22;42227;6.376;-10.782;2022-08-04T13:36:09;25.30;99.90
56322;DHT22;42227;6.376;-10.782;2022-08-04T13:38:45;25.40;99.90
56322;DHT22;42227;6.376;-10.782;2022-08-04T13:41:16;25.50;99.90
56322;DHT22;42227;6.376;-10.782;2022-08-04T13:43:54;25.80;99.90
56322;DHT22;42227;6.376;-10.782;2022-08-04T13:46:52;26.00;99.90
56322;DHT22;42227;6.376;-10.782;2022-08-04T13:49:22;26.20;99.90
56322;DHT22;42227;6.376;-10.782;2022-08-04T13:52:11;26.00;99.90
56322;DHT22;42227;6.376;-10.782;2022-08-04T13:54:41;25.80;99.90
56322;DHT22;42227;6.376;-10.782;2022-08-04T13:57:26;25.60;99.90
56322;DHT22;42227;6.376;-10.782;2022-08-04T14:00:06;25.60;99.90
56322;DHT22;42227;6.376;-10.782;2022-08-04T14:02:45;25.60;99.90
56322;DHT22;42227;6.376;-10.782;2022-08-04T14:05:22;25.50;99.90
56322;DHT22;42227;6.376;-10.782;2022-08-04T14:08:08;25.50;99.90
56322;DHT22;42227;6.376;-10.782;2022-08-04T14:10:39;25.50;99.90
56322;DHT22;42227;6.376;-10.782;2022-08-04T14:13:08;25.40;99.90
56322;DHT22;42227;6.376;-10.782;2022-08-04T14:15:42;25.40;99.90
56322;DHT22;42227;6.376;-10.782;2022-08-04T14:18:31;25.40;99.90
56322;DHT22;42227;6.376;-10.782;2022-08-04T14:23:50;25.30;99.90
56322;DHT22;42227;6.376;-10.782;2022-08-04T14:26:29;25.10;99.90
56322;DHT22;42227;6.376;-10.782;2022-08-04T14:29:15;25.10;99.90
56322;DHT22;42227;6.376;-10.782;2022-08-04T14:32:03;25.20;99.90
56322;DHT22;42227;6.376;-10.782;2022-08-04T14:34:42;25.70;99.90
56322;DHT22;42227;6.376;-10.782;2022-08-04T14:37:16;25.90;99.90
56322;DHT22;42227;6.376;-10.782;2022-08-04T14:39:52;25.70;99.90
56322;DHT22;42227;6.376;-10.782;2022-08-04T14:42:45;25.80;99.90
56322;DHT22;42227;6.376;-10.782;2022-08-04T14:45:29;25.80;99.90
56322;DHT22;42227;6.376;-10.782;2022-08-04T14:47:58;25.70;99.90
56322;DHT22;42227;6.376;-10.782;2022-08-04T14:50:56;25.60;99.90
56322;DHT22;42227;6.376;-10.782;2022-08-04T14:53:25;25.40;99.90
56322;DHT22;42227;6.376;-10.782;2022-08-04T14:55:56;25.50;99.90
56322;DHT22;42227;6.376;-10.782;2022-08-04T14:58:32;25.50;99.90
56322;DHT22;42227;6.376;-10.782;2022-08-04T15:01:08;25.50;99.90
56322;DHT22;42227;6.376;-10.782;2022-08-04T15:03:43;25.50;99.90
56322;DHT22;42227;6.376;-10.782;2022-08-04T15:06:23;25.60;99.90
56322;DHT22;42227;6.376;-10.782;2022-08-04T15:08:53;25.70;99.90
56322;DHT22;42227;6.376;-10.782;2022-08-04T15:11:23;25.70;99.90
56322;DHT22;42227;6.376;-10.782;2022-08-04T15:13:53;25.70;99.90
56322;DHT22;42227;6.376;-10.782;2022-08-04T15:16:22;25.70;99.90
56322;DHT22;42227;6.376;-10.782;2022-08-04T15:18:52;25.60;99.90
56322;DHT22;42227;6.376;-10.782;2022-08-04T15:21:26;25.50;99.90
56322;DHT22;42227;6.376;-10.782;2022-08-04T15:23:56;25.70;99.90
56322;DHT22;42227;6.376;-10.782;2022-08-04T15:26:32;25.90;99.90
56322;DHT22;42227;6.376;-10.782;2022-08-04T15:29:17;25.80;99.90
56322;DHT22;42227;6.376;-10.782;2022-08-04T15:31:47;25.70;99.90
56322;DHT22;42227;6.376;-10.782;2022-08-04T15:34:51;25.70;99.90
56322;DHT22;42227;6.376;-10.782;2022-08-04T15:37:24;25.50;99.90
56322;DHT22;42227;6.376;-10.782;2022-08-04T15:40:13;25.40;99.90
56322;DHT22;42227;6.376;-10.782;2022-08-04T15:45:53;25.50;99.90
56322;DHT22;42227;6.376;-10.782;2022-08-04T15:48:43;25.30;99.90
56322;DHT22;42227;6.376;-10.782;2022-08-04T15:51:23;25.40;99.90
56322;DHT22;42227;6.376;-10.782;2022-08-04T15:54:19;25.30;99.90
56322;DHT22;42227;6.376;-10.782;2022-08-04T15:56:54;25.30;99.90
56322;DHT22;42227;6.376;-10.782;2022-08-04T15:59:59;25.20;99.90
56322;DHT22;42227;6.376;-10.782;2022-08-04T16:02:38;25.50;99.90
56322;DHT22;42227;6.376;-10.782;2022-08-04T16:08:11;25.90;99.90
56322;DHT22;42227;6.376;-10.782;2022-08-04T16:10:44;25.90;99.90
56322;DHT22;42227;6.376;-10.782;2022-08-04T16:13:18;25.80;99.90
56322;DHT22;42227;6.376;-10.782;2022-08-04T16:21:04;25.70;99.90
56322;DHT22;42227;6.376;-10.782;2022-08-04T16:26:42;25.50;99.90
56322;DHT22;42227;6.376;-10.782;2022-08-04T16:36:14;25.50;99.90
56322;DHT22;42227;6.376;-10.782;2022-08-04T16:39:19;25.50;99.90
56322;DHT22;42227;6.376;-10.782;2022-08-04T16:41:48;25.50;99.90
56322;DHT22;42227;6.376;-10.782;2022-08-04T16:44:36;25.50;99.90
56322;DHT22;42227;6.376;-10.782;2022-08-04T16:50:21;25.70;99.90
56322;DHT22;42227;6.376;-10.782;2022-08-04T16:52:52;26.00;99.90
56322;DHT22;42227;6.376;-10.782;2022-08-04T16:55:23;25.80;99.90
56322;DHT22;42227;6.376;-10.782;2022-08-04T16:57:54;25.70;99.90
56322;DHT22;42227;6.376;-10.782;2022-08-04T17:00:37;25.60;99.90
56322;DHT22;42227;6.376;-10.782;2022-08-04T17:03:07;25.50;99.90
56322;DHT22;42227;6.376;-10.782;2022-08-04T17:05:38;25.50;99.90
56322;DHT22;42227;6.376;-10.782;2022-08-04T17:08:10;25.50;99.90
56322;DHT22;42227;6.376;-10.782;2022-08-04T17:10:56;25.50;99.90
56322;DHT22;42227;6.376;-10.782;2022-08-04T17:13:33;25.40;99.90
56322;DHT22;42227;6.376;-10.782;2022-08-04T17:16:22;25.40;99.90
56322;DHT22;42227;6.376;-10.782;2022-08-04T17:18:52;25.40;99.90
56322;DHT22;42227;6.376;-10.782;2022-08-04T17:21:21;25.30;99.90
56322;DHT22;42227;6.376;-10.782;2022-08-04T17:23:55;25.30;99.90
56322;DHT22;42227;6.376;-10.782;2022-08-04T17:26:45;25.30;99.90
56322;DHT22;42227;6.376;-10.782;2022-08-04T17:29:26;25.20;99.90
56322;DHT22;42227;6.376;-10.782;2022-08-04T17:32:15;25.20;99.90
56322;DHT22;42227;6.376;-10.782;2022-08-04T17:34:55;25.40;99.90
56322;DHT22;42227;6.376;-10.782;2022-08-04T17:37:25;25.50;99.90
56322;DHT22;42227;6.376;-10.782;2022-08-04T17:40:13;25.50;99.90
56322;DHT22;42227;6.376;-10.782;2022-08-04T17:43:05;25.40;99.90
56322;DHT22;42227;6.376;-10.782;2022-08-04T17:46:13;25.30;99.90
56322;DHT22;42227;6.376;-10.782;2022-08-04T17:54:35;24.90;99.90
56322;DHT22;42227;6.376;-10.782;2022-08-04T17:57:14;24.80;99.90
56322;DHT22;42227;6.376;-10.782;2022-08-04T18:00:03;24.80;99.90
56322;DHT22;42227;6.376;-10.782;2022-08-04T18:02:35;24.70;99.90
56322;DHT22;42227;6.376;-10.782;2022-08-04T18:05:05;24.70;99.90
56322;DHT22;42227;6.376;-10.782;2022-08-04T18:07:40;24.70;99.90
56322;DHT22;42227;6.376;-10.782;2022-08-04T18:10:43;24.70;99.90
56322;DHT22;42227;6.376;-10.782;2022-08-04T18:13:26;24.70;99.90
56322;DHT22;42227;6.376;-10.782;2022-08-04T18:16:04;24.60;99.90
56322;DHT22;42227;6.376;-10.782;2022-08-04T18:19:07;24.70;99.90
56322;DHT22;42227;6.376;-10.782;2022-08-04T18:21:36;25.20;99.90
56322;DHT22;42227;6.376;-10.782;2022-08-04T18:24:25;25.00;99.90
56322;DHT22;42227;6.376;-10.782;2022-08-04T18:27:03;25.10;99.90
56322;DHT22;42227;6.376;-10.782;2022-08-04T18:29:33;24.90;99.90
56322;DHT22;42227;6.376;-10.782;2022-08-04T18:32:07;24.80;99.90
56322;DHT22;42227;6.376;-10.782;2022-08-04T18:34:36;24.70;99.90
56322;DHT22;42227;6.376;-10.782;2022-08-04T18:37:21;24.70;99.90
56322;DHT22;42227;6.376;-10.782;2022-08-04T18:40:10;24.60;99.90
56322;DHT22;42227;6.376;-10.782;2022-08-04T18:42:59;24.70;99.90
56322;DHT22;42227;6.376;-10.782;2022-08-04T18:45:27;24.60;99.90
56322;DHT22;42227;6.376;-10.782;2022-08-04T18:48:02;24.60;99.90
56322;DHT22;42227;6.376;-10.782;2022-08-04T18:50:41;24.60;99.90
56322;DHT22;42227;6.376;-10.782;2022-08-04T18:53:29;24.50;99.90
56322;DHT22;42227;6.376;-10.782;2022-08-04T18:56:04;24.50;99.90
56322;DHT22;42227;6.376;-10.782;2022-08-04T18:58:52;24.60;99.90
56322;DHT22;42227;6.376;-10.782;2022-08-04T19:01:21;24.70;99.90
56322;DHT22;42227;6.376;-10.782;2022-08-04T19:04:10;24.80;99.90
56322;DHT22;42227;6.376;-10.782;2022-08-04T19:06:58;24.60;99.90
56322;DHT22;42227;6.376;-10.782;2022-08-04T19:09:47;24.40;99.90
56322;DHT22;42227;6.376;-10.782;2022-08-04T19:12:19;24.40;99.90
56322;DHT22;42227;6.376;-10.782;2022-08-04T19:14:57;24.40;99.90
56322;DHT22;42227;6.376;-10.782;2022-08-04T19:17:38;24.40;99.90
56322;DHT22;42227;6.376;-10.782;2022-08-04T19:20:28;24.40;99.90
56322;DHT22;42227;6.376;-10.782;2022-08-04T19:22:57;24.30;99.90
56322;DHT22;42227;6.376;-10.782;2022-08-04T19:25:46;24.30;99.90
56322;DHT22;42227;6.376;-10.782;2022-08-04T19:28:35;24.30;99.90
56322;DHT22;42227;6.376;-10.782;2022-08-04T19:31:08;24.30;99.90
56322;DHT22;42227;6.376;-10.782;2022-08-04T19:33:43;24.20;99.90
56322;DHT22;42227;6.376;-10.782;2022-08-04T19:36:31;24.30;99.90
56322;DHT22;42227;6.376;-10.782;2022-08-04T19:39:04;24.30;99.90
56322;DHT22;42227;6.376;-10.782;2022-08-04T19:41:39;24.30;99.90
56322;DHT22;42227;6.376;-10.782;2022-08-04T19:44:27;24.30;99.90
56322;DHT22;42227;6.376;-10.782;2022-08-04T19:46:58;24.50;99.90
56322;DHT22;42227;6.376;-10.782;2022-08-04T19:49:28;24.50;99.90
56322;DHT22;42227;6.376;-10.782;2022-08-04T19:52:17;24.50;99.90
56322;DHT22;42227;6.376;-10.782;2022-08-04T19:55:03;24.30;99.90
56322;DHT22;42227;6.376;-10.782;2022-08-04T19:57:38;24.20;99.90
56322;DHT22;42227;6.376;-10.782;2022-08-04T20:00:27;24.20;99.90
56322;DHT22;42227;6.376;-10.782;2022-08-04T20:03:01;24.20;99.90
56322;DHT22;42227;6.376;-10.782;2022-08-04T20:05:43;24.20;99.90
56322;DHT22;42227;6.376;-10.782;2022-08-04T20:08:30;24.10;99.90
56322;DHT22;42227;6.376;-10.782;2022-08-04T20:10:59;24.10;99.90
56322;DHT22;42227;6.376;-10.782;2022-08-04T20:13:27;24.10;99.90
56322;DHT22;42227;6.376;-10.782;2022-08-04T20:16:07;24.10;99.90
56322;DHT22;42227;6.376;-10.782;2022-08-04T20:18:55;24.00;99.90
56322;DHT22;42227;6.376;-10.782;2022-08-04T20:21:31;24.00;99.90
56322;DHT22;42227;6.376;-10.782;2022-08-04T20:24:19;24.10;99.90
56322;DHT22;42227;6.376;-10.782;2022-08-04T20:27:12;24.30;99.90
56322;DHT22;42227;6.376;-10.782;2022-08-04T20:29:47;24.50;99.90
56322;DHT22;42227;6.376;-10.782;2022-08-04T20:32:22;24.60;99.90
56322;DHT22;42227;6.376;-10.782;2022-08-04T20:34:54;24.40;99.90
56322;DHT22;42227;6.376;-10.782;2022-08-04T20:37:23;24.30;99.90
56322;DHT22;42227;6.376;-10.782;2022-08-04T20:40:11;24.20;99.90
56322;DHT22;42227;6.376;-10.782;2022-08-04T20:42:42;24.10;99.90
56322;DHT22;42227;6.376;-10.782;2022-08-04T20:45:13;24.10;99.90
56322;DHT22;42227;6.376;-10.782;2022-08-04T20:48:01;24.10;99.90
56322;DHT22;42227;6.376;-10.782;2022-08-04T20:50:29;24.10;99.90
56322;DHT22;42227;6.376;-10.782;2022-08-04T20:52:58;24.10;99.90
56322;DHT22;42227;6.376;-10.782;2022-08-04T20:55:26;24.10;99.90
56322;DHT22;42227;6.376;-10.782;2022-08-04T20:57:56;24.10;99.90
56322;DHT22;42227;6.376;-10.782;2022-08-04T21:00:30;24.10;99.90
56322;DHT22;42227;6.376;-10.782;2022-08-04T21:02:58;24.10;99.90
56322;DHT22;42227;6.376;-10.782;2022-08-04T21:05:27;24.10;99.90
56322;DHT22;42227;6.376;-10.782;2022-08-04T21:07:58;24.20;99.90
56322;DHT22;42227;6.376;-10.782;2022-08-04T21:10:28;24.10;99.90
56322;DHT22;42227;6.376;-10.782;2022-08-04T21:12:57;24.10;99.90
56322;DHT22;42227;6.376;-10.782;2022-08-04T21:15:25;24.30;99.90
56322;DHT22;42227;6.376;-10.782;2022-08-04T21:18:14;24.40;99.90
56322;DHT22;42227;6.376;-10.782;2022-08-04T21:20:43;24.50;99.90
56322;DHT22;42227;6.376;-10.782;2022-08-04T21:23:14;24.40;99.90
56322;DHT22;42227;6.376;-10.782;2022-08-04T21:25:43;24.30;99.90
56322;DHT22;42227;6.376;-10.782;2022-08-04T21:28:16;24.30;99.90
56322;DHT22;42227;6.376;-10.782;2022-08-04T21:30:48;24.30;99.90
56322;DHT22;42227;6.376;-10.782;2022-08-04T21:33:23;24.10;99.90
56322;DHT22;42227;6.376;-10.782;2022-08-04T21:36:13;24.10;99.90